Audubon, IL

8:39 AM CDT on July 06, 2015 (GMT -0500)
APRSWXNET | | Change Station
CLOSE
Current Station
Personal Weather Station
Location: Butler, IL
Elevation: 623 ft
Nearby Weather Stations

Elev 623 ft 39.20 °N, 89.50 °W | Updated 24 minutes ago

Partly Cloudy
Partly Cloudy
75 °F
Feels Like 74 °F
N
1
Wind Variable Wind from SE
Gusts 7.0 mph

Today
High -- | Low -- °F
--% Chance of Precip.
Yesterday
High -- | Low -- °F
Precip. -- in
5:36 AM 8:26 PM
Waning Gibbous, 75% visible
Pressure 30.02 in
Visibility 5.0 miles
Clouds Scattered Clouds 4400 ft
Heat Index 74 °F
Dew Point 72 °F
Humidity 89%
Rainfall in
Snow Depth Not available.
UV 2 out of 12
Pollen 4.10 out of 12
Air Quality Not available.
Flu Activity Not available.
METAR KTAZ 061315Z AUTO 18008KT 5SM BR SCT044 23/21 A3002 RMK AO2

More Conditions Fewer Conditions

Pressure 30.02 in
Visibility 5.0 miles
Clouds Scattered Clouds 4400 ft
Heat Index 74 °F
Dew Point 72 °F
Humidity 89%
Rainfall in
Snow Depth Not available.
UV 2 out of 12
Pollen 4.10 out of 12
Air Quality Not available.
Flu Activity Not available.
METAR KTAZ 061315Z AUTO 18008KT 5SM BR SCT044 23/21 A3002 RMK AO2

More Conditions Fewer Conditions

10-Day Weather Forecast

×

Almanac

Astronomy

Jul. 06, 2015 Rise Set
Actual Time
Civil Twilight
Nautical Twilight
Astronomical Twilight
Moon
Length of Visible Light
Length of Day
Tomorrow will be .
, % of the Moon is Illuminated

Today's Extremes

State Highs State Lows

Community

WunderPhotos

Upload Photos

1,835,558 photos uploaded!

WunderBlogs® & News

Nearby

Air Quality

  Air Quality AQ Index Pollutant
Not available.

Snow Depth

Station Depth Elevation

Earthquake Activity

City Distance Mag. Time & Date
Minimum magnitude displayed is 2.5.

Coastal Water Temperatures

Place Temperature

Stations

Nearby Weather Stations

Station Location Temp. Windchill Dew Point Humidity Wind Precip. Elev Updated Type